Time;durP1;ratioP1;P1;durP2;ratioP2;P2;SDS_P1;SDS_P2;PMS_P1;PMS_P2;Temp;Humidity;BMP_temperature;BMP_pressure;BME280_temperature;BME280_humidity;BME280_pressure;Samples;Min_cycle;Max_cycle;Signal;HPM_P1;HPM_P2
2021/05/13 00:02:06;;;;;;;37.70;21.35;;;;;;;19.34;nan;100538.63;5028369;28;20044;-77
2021/05/13 00:04:31;;;;;;;36.03;22.00;;;;;;;19.55;nan;100538.59;5021194;28;20099;-77
2021/05/13 00:06:56;;;;;;;38.22;21.70;;;;;;;19.10;nan;100531.72;5029916;28;20556;-77
2021/05/13 00:09:22;;;;;;;35.63;22.02;;;;;;;19.40;nan;100524.22;5029787;28;20055;-77
2021/05/13 00:11:50;;;;;;;30.50;19.85;;;;;;;19.26;nan;100524.13;5002544;28;20058;-77
2021/05/13 00:14:18;;;;;;;35.67;22.20;;;;;;;19.07;nan;100524.81;5008841;28;20092;-77
2021/05/13 00:16:45;;;;;;;34.95;21.75;;;;;;;19.26;nan;100515.09;5008809;28;20032;-77
2021/05/13 00:19:13;;;;;;;35.35;22.52;;;;;;;19.19;nan;100517.78;5009496;28;20030;-77
2021/05/13 00:21:41;;;;;;;36.28;22.23;;;;;;;19.08;nan;100510.13;5008943;28;20026;-77
2021/05/13 00:24:08;;;;;;;33.67;21.58;;;;;;;19.27;nan;100514.06;5007723;28;20072;-77
2021/05/13 00:26:38;;;;;;;36.67;21.75;;;;;;;19.02;nan;100519.94;5009239;28;20029;-77
2021/05/13 00:29:05;;;;;;;36.33;23.70;;;;;;;19.12;nan;100519.59;5013820;28;20065;-77
2021/05/13 00:31:31;;;;;;;38.85;22.92;;;;;;;18.99;nan;100514.88;5024128;28;20033;-77
2021/05/13 00:33:59;;;;;;;38.40;23.10;;;;;;;19.21;nan;100514.84;5020417;28;20068;-77
2021/05/13 00:36:25;;;;;;;32.78;21.52;;;;;;;19.21;nan;100520.28;5008682;28;20479;-77
2021/05/13 00:38:51;;;;;;;38.78;22.25;;;;;;;19.25;nan;100518.84;5008766;28;20056;-77
2021/05/13 00:41:16;;;;;;;39.55;21.67;;;;;;;19.21;nan;100515.69;4991273;28;20057;-77
2021/05/13 00:43:42;;;;;;;42.03;23.27;;;;;;;18.97;nan;100516.09;5008888;28;20061;-77
2021/05/13 00:46:07;;;;;;;37.05;23.45;;;;;;;19.02;nan;100511.75;5009090;28;20029;-77
2021/05/13 00:48:34;;;;;;;36.80;22.15;;;;;;;19.14;nan;100512.06;5009262;28;20030;-77
2021/05/13 00:50:59;;;;;;;39.00;22.83;;;;;;;19.32;nan;100516.19;5020185;28;20394;-77
2021/05/13 00:53:25;;;;;;;34.08;21.05;;;;;;;19.20;nan;100514.00;5010230;28;20042;-77
2021/05/13 00:55:51;;;;;;;34.35;21.65;;;;;;;19.40;nan;100510.56;5029558;28;20034;-77
2021/05/13 00:58:17;;;;;;;36.83;24.08;;;;;;;19.10;nan;100516.25;5032795;28;20048;-77
2021/05/13 01:03:14;;;;;;;38.70;24.00;;;;;;;19.07;nan;100513.91;5032225;28;20022;-77
2021/05/13 01:05:39;;;;;;;46.85;25.58;;;;;;;18.96;nan;100508.97;5030345;28;20515;-78
2021/05/13 01:08:06;;;;;;;38.65;24.38;;;;;;;19.18;nan;100509.78;5031819;28;20049;-77
2021/05/13 01:10:32;;;;;;;41.90;25.13;;;;;;;19.31;nan;100509.03;5030402;28;20052;-77
2021/05/13 01:13:03;;;;;;;37.15;23.05;;;;;;;19.39;nan;100514.34;5029820;28;20037;-76
2021/05/13 01:15:39;;;;;;;41.60;24.90;;;;;;;19.32;nan;100521.66;5012010;28;20052;-77
2021/05/13 01:18:14;;;;;;;38.33;24.42;;;;;;;19.33;nan;100517.88;5012415;28;20090;-76
2021/05/13 01:20:39;;;;;;;40.13;25.60;;;;;;;19.43;nan;100513.75;5030114;28;20040;-76
2021/05/13 01:23:08;;;;;;;43.25;25.60;;;;;;;18.75;nan;100513.41;5032404;28;20025;-76
2021/05/13 01:25:43;;;;;;;43.22;25.70;;;;;;;19.07;nan;100511.19;5031518;28;20033;-77
2021/05/13 01:28:08;;;;;;;35.47;24.50;;;;;;;19.28;nan;100513.88;5031423;28;20160;-77
2021/05/13 01:30:33;;;;;;;41.17;26.23;;;;;;;18.55;nan;100515.91;5024519;28;20117;-77
2021/05/13 01:33:00;;;;;;;38.88;26.13;;;;;;;18.82;nan;100522.50;4993674;28;20113;-77
2021/05/13 01:35:26;;;;;;;36.50;24.30;;;;;;;19.31;nan;100525.41;5011868;28;20783;-77
2021/05/13 01:38:05;;;;;;;40.38;26.52;;;;;;;18.93;nan;100512.09;5017951;28;20029;-77
2021/05/13 01:40:30;;;;;;;39.90;26.15;;;;;;;19.46;nan;100517.97;5011699;28;20386;-77
2021/05/13 01:42:55;;;;;;;42.50;26.98;;;;;;;19.40;nan;100524.22;5011251;28;20041;-77
2021/05/13 01:45:21;;;;;;;40.67;26.42;;;;;;;19.31;nan;100514.50;5011733;28;20053;-76
2021/05/13 01:47:46;;;;;;;45.35;26.75;;;;;;;19.46;nan;100517.97;5009979;28;20073;-77
2021/05/13 01:50:11;;;;;;;47.80;27.58;;;;;;;19.55;nan;100511.31;5022047;28;20028;-77
2021/05/13 01:52:37;;;;;;;37.30;24.02;;;;;;;19.21;nan;100512.13;5031005;28;20026;-77
2021/05/13 01:55:02;;;;;;;39.60;26.10;;;;;;;19.27;nan;100514.88;5025103;28;20041;-77
2021/05/13 01:57:28;;;;;;;40.25;26.70;;;;;;;19.26;nan;100523.28;5021990;28;20032;-77
2021/05/13 01:59:53;;;;;;;35.38;23.35;;;;;;;18.89;nan;100521.72;5014019;28;20026;-77
2021/05/13 02:02:21;;;;;;;40.20;25.65;;;;;;;19.14;nan;100524.88;5032689;28;20097;-77
2021/05/13 02:04:46;;;;;;;35.63;25.38;;;;;;;18.55;nan;100534.13;5031576;28;20028;-77
2021/05/13 02:07:12;;;;;;;40.53;26.45;;;;;;;18.79;nan;100530.19;5031315;28;20537;-78
2021/05/13 02:09:37;;;;;;;42.33;26.48;;;;;;;18.94;nan;100521.94;5031472;28;20034;-77
2021/05/13 02:12:04;;;;;;;36.75;24.70;;;;;;;19.17;nan;100517.13;5031021;28;20045;-77
2021/05/13 02:14:30;;;;;;;37.00;25.02;;;;;;;19.11;nan;100515.19;5013301;28;20110;-77
2021/05/13 02:16:55;;;;;;;40.67;25.08;;;;;;;19.08;nan;100523.75;5031584;28;20371;-77
2021/05/13 02:19:20;;;;;;;40.40;27.00;;;;;;;19.16;nan;100511.84;5013531;28;20045;-77
2021/05/13 02:21:46;;;;;;;45.33;27.52;;;;;;;19.01;nan;100518.25;5019722;28;20050;-77
2021/05/13 02:24:11;;;;;;;44.75;27.42;;;;;;;18.50;nan;100525.69;5015866;28;20036;-77
2021/05/13 02:26:37;;;;;;;44.38;27.20;;;;;;;18.96;nan;100525.34;5012411;28;20033;-77
2021/05/13 02:29:02;;;;;;;41.30;25.08;;;;;;;19.12;nan;100527.78;5005087;28;20084;-77
2021/05/13 02:31:27;;;;;;;40.25;28.08;;;;;;;18.98;nan;100529.56;5013629;28;20034;-77
2021/05/13 02:33:53;;;;;;;37.03;23.05;;;;;;;19.06;nan;100529.41;4994522;28;20110;-77
2021/05/13 02:36:18;;;;;;;38.17;25.58;;;;;;;19.22;nan;100522.84;5011940;28;20060;-77
2021/05/13 02:38:44;;;;;;;41.47;26.92;;;;;;;19.10;nan;100529.00;5010825;28;20056;-77
2021/05/13 02:41:09;;;;;;;43.55;27.05;;;;;;;19.00;nan;100532.06;5010325;28;20080;-77
2021/05/13 02:43:34;;;;;;;38.63;26.17;;;;;;;18.68;nan;100528.81;5010360;28;20080;-77
2021/05/13 02:46:00;;;;;;;47.72;26.02;;;;;;;18.93;nan;100526.56;5010315;28;20080;-77
2021/05/13 02:48:26;;;;;;;38.75;24.98;;;;;;;19.13;nan;100531.34;5009233;28;20030;-77
2021/05/13 02:50:51;;;;;;;42.15;25.52;;;;;;;19.23;nan;100529.13;5011357;28;20036;-77
2021/05/13 02:53:16;;;;;;;45.45;26.70;;;;;;;19.45;nan;100532.66;5030101;28;20044;-77
2021/05/13 02:55:42;;;;;;;43.47;26.83;;;;;;;19.77;nan;100538.53;5030611;28;20037;-77
2021/05/13 02:58:07;;;;;;;39.88;25.05;;;;;;;19.96;nan;100533.22;5016668;28;20489;-77
2021/05/13 03:00:48;;;;;;;42.90;26.50;;;;;;;19.66;nan;100526.31;4993362;28;20124;-78
2021/05/13 03:03:13;;;;;;;42.00;25.70;;;;;;;19.36;nan;100518.31;5011701;28;20029;-77
2021/05/13 03:05:39;;;;;;;47.17;27.52;;;;;;;19.24;nan;100504.38;4993163;28;20034;-77
2021/05/13 03:08:05;;;;;;;44.15;27.92;;;;;;;18.66;nan;100498.19;5030459;28;20054;-77
2021/05/13 03:10:44;;;;;;;45.25;27.75;;;;;;;19.01;nan;100491.00;5030140;28;20029;-78
2021/05/13 03:13:12;;;;;;;42.17;27.83;;;;;;;18.68;nan;100490.69;5030120;28;20530;-77
2021/05/13 03:15:38;;;;;;;51.72;27.95;;;;;;;18.80;nan;100482.84;5011960;28;20060;-77
2021/05/13 03:18:04;;;;;;;43.58;27.15;;;;;;;18.57;nan;100481.13;5029743;28;20030;-78
2021/05/13 03:20:41;;;;;;;44.17;28.38;;;;;;;18.22;nan;100487.47;5028802;28;20551;-77
2021/05/13 03:23:10;;;;;;;46.42;28.45;;;;;;;18.27;nan;100477.66;5029181;28;20124;-77
2021/05/13 03:25:36;;;;;;;47.80;27.67;;;;;;;18.06;nan;100483.06;5023597;28;20033;-77
2021/05/13 03:28:09;;;;;;;43.47;30.00;;;;;;;18.25;nan;100477.03;5021916;28;20045;-77
2021/05/13 03:30:42;;;;;;;51.22;29.08;;;;;;;18.54;nan;100469.78;4992878;28;20030;-77
2021/05/13 03:33:08;;;;;;;45.50;28.67;;;;;;;17.98;nan;100477.75;5009960;28;20442;-77
2021/05/13 03:35:35;;;;;;;43.53;27.05;;;;;;;17.80;nan;100473.56;5009073;28;20054;-77
2021/05/13 03:38:01;;;;;;;45.53;28.08;;;;;;;18.47;nan;100485.22;4993126;28;20038;-77
2021/05/13 03:40:30;;;;;;;45.00;28.85;;;;;;;17.97;nan;100484.22;4992178;28;20034;-77
2021/05/13 03:42:55;;;;;;;50.90;29.00;;;;;;;18.45;nan;100479.94;5010108;28;20030;-77
2021/05/13 03:45:21;;;;;;;43.83;28.00;;;;;;;18.86;nan;100478.50;5030597;28;20041;-77
2021/05/13 03:47:46;;;;;;;42.28;28.58;;;;;;;18.78;nan;100474.88;5012677;28;20132;-77
2021/05/13 03:50:12;;;;;;;46.72;29.55;;;;;;;18.69;nan;100484.19;4992214;28;20033;-77
2021/05/13 03:52:38;;;;;;;37.25;25.88;;;;;;;18.93;nan;100480.25;5023182;28;20481;-77
2021/05/13 03:55:04;;;;;;;46.38;28.67;;;;;;;19.01;nan;100485.56;5024937;28;20029;-77
2021/05/13 03:57:29;;;;;;;43.10;26.63;;;;;;;18.59;nan;100489.13;5019988;28;20113;-77
2021/05/13 03:59:57;;;;;;;47.13;28.90;;;;;;;18.81;nan;100485.38;5011996;28;20048;-78
2021/05/13 04:04:53;;;;;;;41.60;27.98;;;;;;;18.71;nan;100475.81;5010995;28;20041;-77
2021/05/13 04:07:19;;;;;;;51.92;29.85;;;;;;;18.44;nan;100470.13;5014516;28;20033;-78
2021/05/13 04:09:45;;;;;;;44.03;30.05;;;;;;;18.83;nan;100477.03;5014315;28;20030;-78
2021/05/13 04:12:11;;;;;;;42.33;28.15;;;;;;;18.59;nan;100473.63;5013883;28;20042;-78
2021/05/13 04:14:36;;;;;;;45.42;29.50;;;;;;;18.72;nan;100469.34;5029744;28;20037;-78
2021/05/13 04:17:05;;;;;;;49.63;29.58;;;;;;;18.94;nan;100478.34;5028504;28;20026;-77
2021/05/13 04:19:31;;;;;;;48.08;29.50;;;;;;;18.77;nan;100472.34;5030898;28;20033;-77
2021/05/13 04:21:56;;;;;;;55.13;30.38;;;;;;;18.09;nan;100459.06;5030017;28;20091;-77
2021/05/13 04:24:21;;;;;;;45.45;29.27;;;;;;;18.34;nan;100464.16;5029697;28;20029;-77
2021/05/13 04:26:47;;;;;;;51.47;31.50;;;;;;;18.58;nan;100457.50;4996137;28;20033;-77
2021/05/13 04:29:12;;;;;;;45.97;30.02;;;;;;;18.72;nan;100458.44;5028514;28;20021;-77
2021/05/13 04:31:38;;;;;;;47.45;28.30;;;;;;;18.90;nan;100458.84;5031900;28;20076;-76
2021/05/13 04:34:04;;;;;;;46.20;29.13;;;;;;;18.77;nan;100459.56;5015118;28;20068;-77
2021/05/13 04:36:30;;;;;;;51.28;30.30;;;;;;;18.36;nan;100462.06;5031746;28;20033;-77
2021/05/13 04:38:56;;;;;;;50.30;28.98;;;;;;;18.88;nan;100462.78;5009491;28;20096;-77
2021/05/13 04:41:21;;;;;;;44.70;28.67;;;;;;;18.75;nan;100456.19;5012388;28;20034;-77
2021/05/13 04:43:47;;;;;;;43.53;28.08;;;;;;;18.62;nan;100447.88;5011917;28;20453;-77
2021/05/13 04:46:14;;;;;;;52.28;30.95;;;;;;;18.60;nan;100447.22;4993180;28;20124;-77
2021/05/13 04:51:23;;;;;;;44.10;28.92;;;;;;;18.32;nan;100444.44;5015169;28;20402;-77
2021/05/13 04:53:50;;;;;;;43.22;27.83;;;;;;;18.67;nan;100439.97;5013903;28;20180;-77
2021/05/13 04:56:19;;;;;;;44.65;27.90;;;;;;;19.01;nan;100439.22;5032003;28;20045;-77
2021/05/13 04:58:45;;;;;;;50.63;30.73;;;;;;;18.25;nan;100447.09;5014217;28;20029;-77
2021/05/13 05:01:10;;;;;;;47.45;29.48;;;;;;;18.24;nan;100436.38;5012925;28;20504;-77
2021/05/13 05:03:35;;;;;;;46.22;27.73;;;;;;;18.30;nan;100433.72;5012710;28;20026;-77
2021/05/13 05:06:01;;;;;;;48.72;30.70;;;;;;;17.99;nan;100428.56;5012760;28;20050;-77
2021/05/13 05:08:27;;;;;;;45.42;29.45;;;;;;;17.94;nan;100419.28;5011539;28;20042;-77
2021/05/13 05:10:52;;;;;;;44.92;27.08;;;;;;;18.51;nan;100423.88;5012289;28;20042;-77
2021/05/13 05:13:18;;;;;;;42.95;28.17;;;;;;;18.48;nan;100416.94;5013538;28;20538;-76
2021/05/13 05:15:43;;;;;;;52.78;31.35;;;;;;;18.06;nan;100415.03;5012876;28;20037;-77
2021/05/13 05:18:08;;;;;;;46.67;28.77;;;;;;;18.38;nan;100419.16;5024375;28;20095;-77
2021/05/13 05:20:34;;;;;;;41.75;27.48;;;;;;;18.84;nan;100416.03;5013238;28;20480;-77
2021/05/13 05:22:59;;;;;;;38.45;25.38;;;;;;;18.48;nan;100406.03;5027145;28;20087;-77
2021/05/13 05:25:25;;;;;;;38.45;24.77;;;;;;;18.65;nan;100409.34;5031811;28;20041;-77
2021/05/13 05:27:50;;;;;;;43.08;27.10;;;;;;;18.65;nan;100403.06;5022001;28;20038;-77
2021/05/13 05:30:16;;;;;;;36.35;24.25;;;;;;;19.26;nan;100406.88;5014480;28;20026;-77
2021/05/13 05:32:41;;;;;;;39.58;23.15;;;;;;;19.22;nan;100405.63;5032194;28;20052;-77
2021/05/13 05:35:08;;;;;;;37.25;22.85;;;;;;;18.97;nan;100410.66;5031891;28;20048;-77
2021/05/13 05:37:34;;;;;;;35.05;23.20;;;;;;;19.44;nan;100420.00;5013997;28;20568;-77
2021/05/13 05:40:02;;;;;;;32.13;21.58;;;;;;;19.39;nan;100421.63;5032145;28;20040;-77
2021/05/13 05:42:28;;;;;;;31.92;21.13;;;;;;;19.13;nan;100415.00;5031529;28;20417;-77
2021/05/13 05:44:54;;;;;;;28.13;20.48;;;;;;;18.86;nan;100415.84;5031800;28;20040;-78
2021/05/13 05:47:20;;;;;;;24.95;18.38;;;;;;;19.59;nan;100395.31;5032493;28;20033;-78
2021/05/13 05:49:46;;;;;;;34.33;21.17;;;;;;;19.19;nan;100396.97;5031971;28;20512;-78
2021/05/13 05:52:12;;;;;;;27.05;18.30;;;;;;;19.50;nan;100391.91;5031885;28;20026;-78
2021/05/13 05:54:38;;;;;;;28.77;18.23;;;;;;;19.68;nan;100401.44;5031431;28;20117;-77
2021/05/13 05:57:03;;;;;;;21.50;16.55;;;;;;;19.40;nan;100399.59;5001365;28;20521;-77
2021/05/13 05:59:29;;;;;;;22.65;18.15;;;;;;;19.36;nan;100403.78;5025918;28;20402;-77
2021/05/13 06:01:54;;;;;;;24.30;16.88;;;;;;;19.59;nan;100408.94;5019360;28;20026;-77
2021/05/13 06:04:19;;;;;;;22.00;16.80;;;;;;;19.60;nan;100405.16;5031699;28;20492;-77
2021/05/13 06:06:45;;;;;;;20.90;15.38;;;;;;;19.66;nan;100401.66;5035318;28;20029;-77
2021/05/13 06:09:10;;;;;;;22.95;16.05;;;;;;;19.64;nan;100398.28;5021911;28;20049;-77
2021/05/13 06:11:36;;;;;;;23.80;17.13;;;;;;;18.90;nan;100400.78;5027212;28;20565;-77
2021/05/13 06:14:02;;;;;;;28.30;16.60;;;;;;;19.00;nan;100403.97;5031319;28;20041;-77
2021/05/13 06:16:27;;;;;;;22.67;15.63;;;;;;;18.95;nan;100406.47;5031074;28;20608;-77
2021/05/13 06:18:55;;;;;;;30.85;19.08;;;;;;;18.62;nan;100401.56;5032826;28;20044;-77
2021/05/13 06:21:22;;;;;;;27.20;17.65;;;;;;;18.56;nan;100403.19;5033828;28;20033;-77
2021/05/13 06:23:52;;;;;;;25.75;16.40;;;;;;;18.95;nan;100401.88;5014563;28;20544;-77
2021/05/13 06:26:23;;;;;;;21.58;15.45;;;;;;;18.90;nan;100396.16;5030402;28;20033;-77
2021/05/13 06:28:48;;;;;;;27.45;16.73;;;;;;;18.99;nan;100405.88;5032016;28;20029;-77
2021/05/13 06:31:13;;;;;;;22.33;15.73;;;;;;;18.82;nan;100409.91;5031330;28;20033;-77
2021/05/13 06:33:39;;;;;;;21.65;15.65;;;;;;;18.74;nan;100407.38;5033104;28;20505;-77
2021/05/13 06:36:04;;;;;;;22.75;14.85;;;;;;;18.67;nan;100409.13;5033716;28;20041;-77
2021/05/13 06:38:31;;;;;;;21.13;14.90;;;;;;;18.82;nan;100418.97;5031039;28;20021;-77
2021/05/13 06:40:57;;;;;;;21.23;13.90;;;;;;;18.81;nan;100409.09;5032126;28;20038;-78
2021/05/13 06:43:23;;;;;;;24.52;14.55;;;;;;;18.92;nan;100412.31;5032029;28;20112;-78
2021/05/13 06:45:49;;;;;;;19.52;13.10;;;;;;;19.42;nan;100402.13;5031504;28;20116;-78
2021/05/13 06:48:14;;;;;;;20.60;13.60;;;;;;;19.34;nan;100403.13;5031780;28;20473;-78
2021/05/13 06:50:39;;;;;;;19.98;13.77;;;;;;;19.02;nan;100402.75;5031627;28;20435;-77
2021/05/13 06:53:06;;;;;;;22.02;13.55;;;;;;;19.00;nan;100399.38;5029181;28;20039;-77
2021/05/13 06:55:32;;;;;;;22.15;14.10;;;;;;;18.65;nan;100394.91;5029714;28;20481;-77
2021/05/13 06:57:57;;;;;;;21.65;15.05;;;;;;;18.81;nan;100395.47;5030011;28;20044;-78
2021/05/13 07:00:24;;;;;;;25.50;14.48;;;;;;;19.01;nan;100386.59;5030409;28;20036;-77
2021/05/13 07:02:50;;;;;;;21.55;13.88;;;;;;;19.95;nan;100388.72;5029789;28;20029;-78
2021/05/13 07:05:15;;;;;;;24.00;14.98;;;;;;;19.45;nan;100393.56;5010795;28;20033;-77
2021/05/13 07:07:40;;;;;;;22.98;14.10;;;;;;;19.05;nan;100391.44;5010580;28;20029;-77
2021/05/13 07:10:07;;;;;;;21.90;14.57;;;;;;;19.06;nan;100393.13;5014719;28;20545;-77
2021/05/13 07:12:33;;;;;;;22.35;15.07;;;;;;;19.11;nan;100400.72;5029780;28;20140;-77
2021/05/13 07:15:01;;;;;;;24.63;14.77;;;;;;;19.19;nan;100395.09;5030493;28;20488;-77
2021/05/13 07:17:27;;;;;;;25.67;16.40;;;;;;;19.21;nan;100401.19;5029806;28;20108;-78
2021/05/13 07:19:52;;;;;;;23.38;14.88;;;;;;;19.28;nan;100403.94;5030479;28;20478;-77
2021/05/13 07:22:18;;;;;;;23.77;14.82;;;;;;;19.73;nan;100405.25;5029709;28;20112;-77
2021/05/13 07:24:44;;;;;;;24.40;15.73;;;;;;;19.39;nan;100391.63;5029328;28;20044;-77
2021/05/13 07:27:09;;;;;;;26.33;16.30;;;;;;;19.33;nan;100390.56;5010599;28;20473;-78
2021/05/13 07:29:35;;;;;;;25.23;15.52;;;;;;;19.72;nan;100380.91;5023774;28;20370;-78
2021/05/13 07:32:01;;;;;;;24.80;16.65;;;;;;;19.81;nan;100378.84;5028404;28;20071;-77
2021/05/13 07:34:26;;;;;;;25.45;15.48;;;;;;;19.78;nan;100384.72;5029339;28;20497;-77
2021/05/13 07:36:51;;;;;;;21.85;15.60;;;;;;;19.61;nan;100382.28;5029518;28;20371;-77
2021/05/13 07:39:17;;;;;;;21.70;13.70;;;;;;;19.84;nan;100378.44;5028693;28;20509;-77
2021/05/13 07:41:42;;;;;;;25.30;15.68;;;;;;;19.28;nan;100395.75;5031849;28;20055;-77
2021/05/13 07:44:07;;;;;;;20.83;15.35;;;;;;;19.70;nan;100386.56;5032599;28;20384;-77
2021/05/13 07:46:36;;;;;;;25.60;15.70;;;;;;;19.88;nan;100386.00;5033432;28;20025;-77
2021/05/13 07:49:02;;;;;;;22.23;15.45;;;;;;;20.01;nan;100396.09;5036842;28;20029;-78
2021/05/13 07:51:27;;;;;;;26.67;16.00;;;;;;;19.94;nan;100389.78;5029248;28;20443;-77
2021/05/13 07:53:53;;;;;;;29.02;16.90;;;;;;;20.16;nan;100394.03;5027779;28;20025;-77
2021/05/13 07:56:18;;;;;;;30.85;16.52;;;;;;;20.29;nan;100395.09;5030400;28;20493;-78
2021/05/13 07:58:43;;;;;;;25.13;16.58;;;;;;;20.08;nan;100393.38;5030935;28;20037;-78
2021/05/13 08:01:09;;;;;;;30.08;16.92;;;;;;;20.42;nan;100392.41;5029345;28;20141;-78
2021/05/13 08:03:34;;;;;;;30.38;17.08;;;;;;;19.96;nan;100385.81;5028016;28;20481;-78
2021/05/13 08:05:59;;;;;;;27.10;16.55;;;;;;;19.25;nan;100380.69;5030017;28;20029;-78
2021/05/13 08:08:25;;;;;;;23.23;14.95;;;;;;;19.87;nan;100388.94;5011660;28;20064;-78
2021/05/13 08:10:50;;;;;;;34.92;17.17;;;;;;;19.81;nan;100371.50;5011595;28;20033;-78
2021/05/13 08:13:17;;;;;;;29.30;16.08;;;;;;;19.60;nan;100377.88;5029080;28;20041;-77
2021/05/13 08:15:42;;;;;;;28.77;15.55;;;;;;;19.61;nan;100373.28;5010641;28;20034;-78
2021/05/13 08:18:08;;;;;;;27.63;15.73;;;;;;;19.27;nan;100364.94;5028880;28;20041;-77
2021/05/13 08:20:33;;;;;;;26.50;16.77;;;;;;;19.91;nan;100363.75;5031063;28;20035;-77
2021/05/13 08:22:59;;;;;;;26.92;15.52;;;;;;;19.90;nan;100367.53;5027321;28;20029;-78
2021/05/13 08:25:24;;;;;;;28.52;16.05;;;;;;;19.31;nan;100364.53;5029161;28;20036;-77
2021/05/13 08:27:50;;;;;;;25.00;14.77;;;;;;;19.60;nan;100358.78;5028549;28;20033;-78
2021/05/13 08:30:16;;;;;;;18.80;13.35;;;;;;;19.76;nan;100362.22;5029027;28;20072;-77
2021/05/13 08:32:42;;;;;;;25.23;14.80;;;;;;;19.58;nan;100357.31;5028912;28;20033;-78
2021/05/13 08:35:08;;;;;;;22.63;14.18;;;;;;;19.64;nan;100351.91;5029295;28;20029;-79
2021/05/13 08:37:34;;;;;;;21.50;13.77;;;;;;;19.54;nan;100348.69;5028510;28;20108;-78
2021/05/13 08:39:59;;;;;;;21.77;13.68;;;;;;;19.19;nan;100353.34;5028754;28;20124;-78
2021/05/13 08:42:24;;;;;;;26.15;14.52;;;;;;;19.15;nan;100350.19;5029786;28;20078;-77
2021/05/13 08:44:51;;;;;;;23.13;14.50;;;;;;;19.38;nan;100351.78;5030098;28;20056;-78
2021/05/13 08:47:16;;;;;;;24.52;15.75;;;;;;;18.86;nan;100337.66;5021449;28;20116;-77
2021/05/13 08:49:42;;;;;;;27.08;16.33;;;;;;;19.26;nan;100338.72;5021915;28;20108;-78
2021/05/13 08:52:12;;;;;;;28.92;15.65;;;;;;;19.38;nan;100332.69;5029542;28;20034;-78
2021/05/13 08:55:00;;;;;;;23.92;15.13;;;;;;;19.52;nan;100323.50;5027770;28;20045;-77
2021/05/13 08:57:26;;;;;;;26.73;13.38;;;;;;;19.49;nan;100323.91;5028249;28;20084;-77
2021/05/13 08:59:53;;;;;;;24.88;14.30;;;;;;;19.58;nan;100319.97;5009789;28;20043;-77
2021/05/13 09:02:20;;;;;;;19.80;12.45;;;;;;;19.05;nan;100320.56;5026870;28;20436;-78
2021/05/13 09:04:48;;;;;;;21.25;13.27;;;;;;;18.90;nan;100324.47;5028865;28;20091;-78
2021/05/13 09:07:22;;;;;;;23.55;13.60;;;;;;;19.72;nan;100316.25;5028422;28;20031;-78
2021/05/13 09:10:11;;;;;;;18.83;12.52;;;;;;;19.87;nan;100321.53;5028725;28;20039;-77
2021/05/13 09:12:41;;;;;;;20.20;14.45;;;;;;;20.27;nan;100309.84;5027085;28;20486;-77
2021/05/13 09:15:14;;;;;;;22.38;14.23;;;;;;;19.97;nan;100311.06;5029042;28;20477;-77
2021/05/13 09:17:46;;;;;;;22.92;13.23;;;;;;;20.72;nan;100320.94;5031058;28;20025;-77
2021/05/13 09:20:39;;;;;;;21.20;13.55;;;;;;;20.65;nan;100323.69;5016677;28;20120;-78
2021/05/13 09:23:23;;;;;;;19.42;13.38;;;;;;;20.82;nan;100322.22;5031675;28;20037;-77
2021/05/13 09:26:11;;;;;;;24.48;12.77;;;;;;;20.89;nan;100346.78;5033501;28;20810;-78
2021/05/13 09:28:38;;;;;;;21.77;13.48;;;;;;;20.73;nan;100337.16;5032644;28;20033;-77
2021/05/13 09:31:04;;;;;;;19.27;13.32;;;;;;;20.99;nan;100338.97;5030986;28;20060;-77
2021/05/13 09:33:31;;;;;;;20.02;11.75;;;;;;;20.87;nan;100348.88;5024780;28;20554;-77
2021/05/13 09:36:16;;;;;;;21.10;12.35;;;;;;;20.80;nan;100353.53;5031060;28;20046;-77
2021/05/13 09:38:41;;;;;;;19.38;12.18;;;;;;;20.51;nan;100344.72;5031163;28;20034;-77
2021/05/13 09:41:08;;;;;;;23.35;12.55;;;;;;;21.01;nan;100342.34;5032009;28;20040;-77
2021/05/13 09:43:33;;;;;;;19.20;12.15;;;;;;;20.77;nan;100345.75;5032576;28;20033;-79
2021/05/13 09:46:01;;;;;;;14.98;11.48;;;;;;;20.79;nan;100347.25;5031723;28;20888;-78
2021/05/13 09:48:40;;;;;;;17.90;10.82;;;;;;;21.10;nan;100348.44;4997046;28;20065;-78
2021/05/13 09:51:30;;;;;;;17.73;11.45;;;;;;;21.18;nan;100356.41;5024177;28;20029;-78
2021/05/13 09:54:21;;;;;;;19.50;10.50;;;;;;;21.24;nan;100365.63;5032602;28;20033;-78
2021/05/13 09:56:52;;;;;;;19.45;11.23;;;;;;;20.50;nan;100364.03;5029646;28;20056;-77
2021/05/13 09:59:24;;;;;;;18.08;11.15;;;;;;;21.29;nan;100363.09;5032400;28;20468;-77
2021/05/13 10:01:57;;;;;;;18.63;11.88;;;;;;;21.34;nan;100369.63;5032674;28;20104;-78
2021/05/13 10:04:23;;;;;;;19.15;11.15;;;;;;;21.26;nan;100360.78;5031460;28;20033;-77
2021/05/13 10:06:48;;;;;;;21.23;12.20;;;;;;;21.50;nan;100367.47;5031096;28;20044;-77
2021/05/13 10:09:15;;;;;;;17.13;11.43;;;;;;;21.40;nan;100369.84;5031745;28;20037;-78
2021/05/13 10:11:51;;;;;;;21.67;10.82;;;;;;;21.20;nan;100369.88;5032401;28;20048;-77
2021/05/13 10:14:19;;;;;;;17.92;11.43;;;;;;;21.39;nan;100371.72;5031062;28;20041;-78
2021/05/13 10:16:48;;;;;;;18.15;11.23;;;;;;;21.54;nan;100358.59;5030322;28;20040;-78
2021/05/13 10:19:34;;;;;;;20.30;11.38;;;;;;;21.11;nan;100364.63;5032159;28;20029;-77
2021/05/13 10:22:01;;;;;;;26.02;10.73;;;;;;;20.64;nan;100352.91;5033287;28;20029;-80
2021/05/13 10:24:27;;;;;;;20.20;12.23;;;;;;;20.35;nan;100348.69;5047670;28;20029;-76
2021/05/13 10:26:53;;;;;;;24.88;12.63;;;;;;;20.62;nan;100344.09;5032124;28;20042;-80
2021/05/13 10:32:10;;;;;;;18.75;12.50;;;;;;;20.36;nan;100336.72;5031552;28;20045;-79
2021/05/13 10:34:41;;;;;;;22.55;12.45;;;;;;;20.15;nan;100329.56;5046324;28;20396;-80
2021/05/13 10:37:17;;;;;;;23.10;12.45;;;;;;;20.04;nan;100327.44;5045862;28;20029;-79
2021/05/13 10:42:40;;;;;;;30.05;14.75;;;;;;;19.59;nan;100318.06;5031541;28;20172;-80
2021/05/13 10:45:23;;;;;;;28.83;13.57;;;;;;;18.92;nan;100312.34;5030896;28;20026;-78
2021/05/13 10:48:18;;;;;;;26.65;13.02;;;;;;;18.94;nan;100303.94;5031132;28;20029;-77
2021/05/13 10:50:58;;;;;;;35.33;13.23;;;;;;;18.64;nan;100303.31;5033791;28;20096;-78
2021/05/13 10:53:39;;;;;;;27.23;12.45;;;;;;;18.71;nan;100302.31;5029994;28;20132;-78
2021/05/13 10:56:14;;;;;;;25.47;12.70;;;;;;;18.66;nan;100299.34;5019292;28;20037;-77
2021/05/13 10:59:12;;;;;;;29.20;13.70;;;;;;;18.59;nan;100295.75;5011981;28;20276;-77
2021/05/13 11:01:49;;;;;;;24.88;11.95;;;;;;;18.50;nan;100310.56;5029897;28;20410;-78
2021/05/13 11:04:20;;;;;;;21.92;12.57;;;;;;;18.49;nan;100314.31;5030977;28;20038;-78
2021/05/13 11:06:49;;;;;;;26.90;12.88;;;;;;;18.47;nan;100313.69;5011542;28;20034;-77
2021/05/13 11:12:23;;;;;;;22.92;13.00;;;;;;;19.00;nan;100303.16;5027709;28;20405;-76
2021/05/13 11:14:56;;;;;;;22.35;12.85;;;;;;;19.12;nan;100309.69;5031885;28;20489;-78
2021/05/13 11:20:32;;;;;;;20.10;12.38;;;;;;;19.51;nan;100303.56;5033448;28;20044;-78
2021/05/13 11:22:58;;;;;;;19.50;12.00;;;;;;;19.38;nan;100299.97;5041503;28;20118;-77
2021/05/13 11:25:51;;;;;;;18.13;11.88;;;;;;;19.47;nan;100301.47;5028670;28;20025;-77
2021/05/13 11:28:41;;;;;;;22.33;12.80;;;;;;;19.10;nan;100309.09;5020345;28;20504;-77
2021/05/13 11:31:06;;;;;;;17.25;11.50;;;;;;;19.32;nan;100307.09;5029471;28;20068;-77
2021/05/13 11:33:45;;;;;;;25.70;14.20;;;;;;;19.43;nan;100314.66;5029748;28;20053;-77
2021/05/13 11:36:13;;;;;;;18.75;12.00;;;;;;;18.54;nan;100317.28;5044020;28;20106;-76
2021/05/13 11:38:39;;;;;;;24.60;12.38;;;;;;;19.11;nan;100318.94;5028701;28;20072;-76
2021/05/13 11:41:05;;;;;;;18.33;11.32;;;;;;;18.83;nan;100311.66;5029823;28;20902;-77
2021/05/13 11:43:36;;;;;;;20.52;12.40;;;;;;;19.17;nan;100326.31;5028781;28;20038;-75
2021/05/13 11:46:10;;;;;;;16.83;10.43;;;;;;;19.01;nan;100319.31;5029565;28;20033;-79
2021/05/13 11:48:43;;;;;;;16.23;10.25;;;;;;;19.33;nan;100316.94;5028850;28;20112;-77